WetterOnline ( https://www.wetteronline.ch )

Wetter aktuell Veckenstedt

Aktuelles Wetter: Wernigerode (240m)

6-stündlich | Neueste Meldungen
Ortszeit Temperatur Wetter
Sa, 24.10. 8:00 12.3° C fast wolkenlos
Sa, 24.10. 2:00 11.9° C wolkig
Fr, 23.10. 20:00 11.7° C bedeckt
Fr, 23.10. 14:00 14.9° C Sprühregen
Fr, 23.10. 8:00 12.8° C bewölkt
Fr, 23.10. 2:00 13.1° C wolkig
Do, 22.10. 20:00 15.6° C bedeckt
Do, 22.10. 14:00 19.1° C bewölkt
Ortszeit Temperatur Wetter
Sa, 24.10. 13:00 15.6° C wolkig
Sa, 24.10. 12:50 15.6° C wolkig
Sa, 24.10. 12:40 15.4° C wolkig
Sa, 24.10. 12:30 15.5° C wolkig
Sa, 24.10. 12:20 15.5° C wolkig
Sa, 24.10. 12:10 14.9° C wolkig
Sa, 24.10. 12:00 14.1° C leicht bewölkt
Sa, 24.10. 11:30 14.6° C wolkig
Sa, 24.10. 11:00 14.4° C wolkig
Sa, 24.10. 10:30 14.2° C wolkenlos
Sa, 24.10. 10:00 14.0° C wolkenlos
Ortszeit Relative Feuchte Sichtweite
Sa, 24.10. 8:00 71% >70 km
Sa, 24.10. 2:00 89% 55 km
Fr, 23.10. 20:00 92% 55 km
Fr, 23.10. 14:00 89% 13 km
Fr, 23.10. 8:00 94% 30 km
Fr, 23.10. 2:00 89% 50 km
Do, 22.10. 20:00 74% 55 km
Do, 22.10. 14:00 58% 50 km
Ortszeit Relative Feuchte Sichtweite
Sa, 24.10. 13:00 62% >70 km
Sa, 24.10. 12:50 62% -
Sa, 24.10. 12:40 63% -
Sa, 24.10. 12:30 64% 60 km
Sa, 24.10. 12:20 64% -
Sa, 24.10. 12:10 65% -
Sa, 24.10. 12:00 68% 45 km
Sa, 24.10. 11:30 69% 60 km
Sa, 24.10. 11:00 70% 55 km
Sa, 24.10. 10:30 69% 50 km
Sa, 24.10. 10:00 68% 55 km
Ortszeit Niederschlagsmenge Niederschlagsart
Sa, 24.10. 8:00 0.1 l/m2 in 12 Std. -
Sa, 24.10. 2:00 0.1 l/m2 in 6 Std. Regen
Fr, 23.10. 20:00 5 l/m2 in 12 Std. Regen
Fr, 23.10. 14:00 1 l/m2 in 6 Std. Regen
Fr, 23.10. 8:00 1 l/m2 in 12 Std. Regen
Fr, 23.10. 2:00 1 l/m2 in 6 Std. Regen
Do, 22.10. 20:00 0.1 l/m2 in 12 Std. -
Do, 22.10. 14:00 0.1 l/m2 in 6 Std. Sprühregen
Ortszeit Niederschlagsmenge Niederschlagsart
Sa, 24.10. 13:00 0.0 l/m2 in 1 Std. -
Sa, 24.10. 12:50 keine Meldung -
Sa, 24.10. 12:40 keine Meldung -
Sa, 24.10. 12:30 0.0 l/m2 in 1 Std. -
Sa, 24.10. 12:20 keine Meldung -
Sa, 24.10. 12:10 keine Meldung -
Sa, 24.10. 12:00 0.0 l/m2 in 1 Std. -
Sa, 24.10. 11:30 0.0 l/m2 in 1 Std. -
Sa, 24.10. 11:00 0.0 l/m2 in 1 Std. -
Sa, 24.10. 10:30 0.0 l/m2 in 1 Std. -
Sa, 24.10. 10:00 0.0 l/m2 in 1 Std. -
Ortszeit Stärke Spitze Richtung
km/h Bft. km/h Grad Sektor
Sa, 24.10. 8:00 7 2 40 240° SW
Sa, 24.10. 2:00 11 2 22 240° SW
Fr, 23.10. 20:00 4 1 32 170° S
Fr, 23.10. 14:00 7 2 19 210° SW
Fr, 23.10. 8:00 4 1 14 100° O
Fr, 23.10. 2:00 7 2 32 180° S
Do, 22.10. 20:00 13 3 30 180° S
Do, 22.10. 14:00 14 3 32 220° SW
Ortszeit Stärke Spitze Richtung
km/h Bft. km/h Grad Sektor
Sa, 24.10. 13:00 20 4 43 220° SW
Sa, 24.10. 12:50 20 4 - 220° SW
Sa, 24.10. 12:40 20 4 - 230° SW
Sa, 24.10. 12:30 13 3 35 210° SW
Sa, 24.10. 12:20 13 3 - 210° SW
Sa, 24.10. 12:10 14 3 - 200° S
Sa, 24.10. 12:00 19 3 31 210° SW
Sa, 24.10. 11:30 15 3 31 210° SW
Sa, 24.10. 11:00 18 3 36 210° SW
Sa, 24.10. 10:30 15 3 33 210° SW
Sa, 24.10. 10:00 13 3 30 220° SW
Ortszeit Untergrenze Bedeckung Gattung
total tief tief mittel hoch
Sa, 24.10. 8:00 9000 m 2/8 0/8 - - -
Sa, 24.10. 2:00 2100 m 5/8 4/8 - - -
Fr, 23.10. 20:00 2100 m 8/8 8/8 - - -
Fr, 23.10. 14:00 870 m 8/8 8/8 - - -
Fr, 23.10. 8:00 1350 m 8/8 5/8 - - -
Fr, 23.10. 2:00 900 m 7/8 5/8 - - -
Do, 22.10. 20:00 6600 m 8/8 8/8 - - -
Do, 22.10. 14:00 1800 m 7/8 7/8 - - -
Ortszeit Bedeckungsgrad in Achtel und Wolkenuntergrenze
Sa, 24.10. 13:00 2(2100m) 6(9000m)
Sa, 24.10. 12:50 2(2100m) 6(9000m)
Sa, 24.10. 12:40 2(2100m) 7(9000m)
Sa, 24.10. 12:30 1(2100m) 7(9000m)
Sa, 24.10. 12:20 1(2100m) 7(9000m)
Sa, 24.10. 12:10 8(9000m)
Sa, 24.10. 12:00 8(9000m)
Sa, 24.10. 11:30 1(1800m) 8(9000m)
Sa, 24.10. 11:00 4(1800m) 5(10500m)
Sa, 24.10. 10:30 keine Wolken
Sa, 24.10. 10:00 keine Wolken
Ortszeit Luftdruck NN (hPa) Tendenz (hPa in 3 Std.)
Sa, 24.10. 8:00 1013 + 0,6
Sa, 24.10. 2:00 1012 + 0,5
Fr, 23.10. 20:00 1011 + 0,2
Fr, 23.10. 14:00 1011 - 1,2
Fr, 23.10. 8:00 1012 - 0,6
Fr, 23.10. 2:00 1013 - 0,3
Do, 22.10. 20:00 1012 - 0,2
Do, 22.10. 14:00 1013 0,0
Ortszeit Luftdruck NN (hPa) Tendenz (hPa in 3 Std.)
Sa, 24.10. 13:00 1014 + 0,2
Sa, 24.10. 12:50 1014 keine Meldung
Sa, 24.10. 12:40 1014 keine Meldung
Sa, 24.10. 12:30 1014 + 0,4
Sa, 24.10. 12:20 1014 keine Meldung
Sa, 24.10. 12:10 1014 keine Meldung
Sa, 24.10. 12:00 1014 + 0,7
Sa, 24.10. 11:30 1014 + 0,9
Sa, 24.10. 11:00 1014 + 1,1
Sa, 24.10. 10:30 1014 + 1,0
Sa, 24.10. 10:00 1014 + 0,8
Ortszeit Schneehöhe (cm)
Sa, 24.10. 8:00 0
Sa, 24.10. 2:00 0
Fr, 23.10. 20:00 0
Fr, 23.10. 14:00 0
Fr, 23.10. 8:00 0
Fr, 23.10. 2:00 0
Do, 22.10. 20:00 0
Do, 22.10. 14:00 0
Ortszeit Schneehöhe (cm)
Sa, 24.10. 13:00 0
Sa, 24.10. 12:50 0
Sa, 24.10. 12:40 0
Sa, 24.10. 12:30 0
Sa, 24.10. 12:20 0
Sa, 24.10. 12:10 0
Sa, 24.10. 12:00 0
Sa, 24.10. 11:30 0
Sa, 24.10. 11:00 0
Sa, 24.10. 10:30 0
Sa, 24.10. 10:00 0
Link zu dieser Seite / Seite empfehlen

Das Wetter in ...